TimeCDT,TemperatureF,Dew PointF,Humidity,Sea Level PressureIn,VisibilityMPH,Wind Direction,Wind SpeedMPH,Gust SpeedMPH,PrecipitationIn,Events,Conditions,WindDirDegrees,DateUTC
12:53 AM,73.0,70.0,90,30.02,8.0,Calm,Calm,-,N/A,,Clear,0,2012-10-06 05:53:00
1:30 AM,73.4,71.6,94,30.01,6.0,NNE,4.6,-,N/A,,Mostly Cloudy,20,2012-10-06 06:30:00
1:46 AM,73.4,71.6,94,30.01,6.0,North,5.8,-,N/A,,Overcast,10,2012-10-06 06:46:00
1:53 AM,73.9,72.0,93,30.01,5.0,NNE,3.5,-,N/A,,Overcast,30,2012-10-06 06:53:00
2:41 AM,73.4,71.6,94,30.00,5.0,North,3.5,-,0.01,,Mostly Cloudy,350,2012-10-06 07:41:00
2:48 AM,73.4,71.6,94,29.99,6.0,NW,5.8,-,0.01,,Scattered Clouds,320,2012-10-06 07:48:00
2:49 AM,73.9,72.0,93,30.00,6.0,NW,5.8,-,0.01,,Scattered Clouds,320,2012-10-06 07:49:00
2:57 AM,73.4,71.6,94,29.99,2.5,NNW,4.6,-,N/A,,Mostly Cloudy,340,2012-10-06 07:57:00
3:08 AM,73.4,71.6,94,29.99,4.0,NNE,3.5,-,N/A,,Mostly Cloudy,20,2012-10-06 08:08:00
3:18 AM,73.4,71.6,94,29.99,1.8,Calm,Calm,-,0.01,,Mostly Cloudy,0,2012-10-06 08:18:00
3:41 AM,73.4,71.6,94,29.98,0.5,North,3.5,-,0.01,Fog,Fog,350,2012-10-06 08:41:00
3:53 AM,73.0,71.1,93,29.99,0.5,NNW,4.6,-,0.01,Fog,Fog,340,2012-10-06 08:53:00
4:00 AM,73.4,71.6,94,29.98,0.2,North,4.6,-,N/A,Fog,Fog,350,2012-10-06 09:00:00
4:53 AM,72.0,70.0,93,29.99,0.5,North,3.5,-,N/A,Fog,Fog,360,2012-10-06 09:53:00
5:10 AM,71.6,69.8,94,29.98,1.0,North,5.8,-,N/A,,Mist,350,2012-10-06 10:10:00
5:20 AM,71.6,69.8,94,29.99,0.8,North,3.5,-,N/A,,Mist,360,2012-10-06 10:20:00
5:28 AM,71.6,69.8,94,29.99,1.2,North,4.6,-,N/A,,Overcast,350,2012-10-06 10:28:00
5:53 AM,72.0,70.0,93,30.00,0.8,NNW,5.8,-,N/A,,Mist,340,2012-10-06 10:53:00
6:05 AM,71.6,69.8,94,29.99,0.2,North,4.6,-,N/A,Fog,Fog,350,2012-10-06 11:05:00
6:50 AM,71.6,69.8,94,30.00,1.5,NNW,5.8,-,N/A,,Overcast,340,2012-10-06 11:50:00
6:53 AM,72.0,70.0,93,30.00,1.5,NNW,4.6,-,0.01,,Overcast,340,2012-10-06 11:53:00
7:05 AM,71.6,69.8,94,30.00,1.5,NNW,5.8,-,N/A,,Overcast,340,2012-10-06 12:05:00
7:15 AM,71.6,69.8,94,30.00,0.2,NNW,5.8,-,N/A,Fog,Fog,330,2012-10-06 12:15:00
7:37 AM,71.6,71.6,100,30.00,0.2,North,6.9,-,N/A,Fog,Fog,350,2012-10-06 12:37:00
7:45 AM,71.6,71.6,100,30.00,1.0,NNW,5.8,-,N/A,,Overcast,340,2012-10-06 12:45:00
7:53 AM,73.0,71.1,93,30.01,8.0,NNW,4.6,-,N/A,,Clear,340,2012-10-06 12:53:00
8:53 AM,77.0,71.1,82,30.01,8.0,North,5.8,-,0.02,,Clear,350,2012-10-06 13:53:00
9:53 AM,81.0,69.1,67,30.02,10.0,NNW,10.4,-,N/A,,Clear,340,2012-10-06 14:53:00
10:53 AM,84.0,66.0,55,30.01,10.0,North,10.4,-,N/A,,Clear,10,2012-10-06 15:53:00
11:53 AM,86.0,64.0,48,30.00,10.0,North,9.2,-,N/A,,Clear,10,2012-10-06 16:53:00
12:53 PM,87.1,63.0,44,29.98,10.0,Variable,4.6,-,N/A,,Clear,0,2012-10-06 17:53:00
1:53 PM,88.0,60.1,39,29.95,10.0,NNE,6.9,-,N/A,,Clear,30,2012-10-06 18:53:00
2:53 PM,89.1,59.0,36,29.92,10.0,NNW,6.9,-,N/A,,Clear,340,2012-10-06 19:53:00
3:53 PM,89.1,57.9,35,29.91,10.0,North,5.8,-,N/A,,Clear,350,2012-10-06 20:53:00
4:53 PM,84.9,64.0,49,29.91,10.0,SW,4.6,-,N/A,,Clear,230,2012-10-06 21:53:00
5:53 PM,82.0,66.9,60,29.92,10.0,SSW,9.2,-,N/A,,Clear,210,2012-10-06 22:53:00
6:53 PM,79.0,66.9,66,29.94,10.0,WSW,5.8,-,N/A,,Clear,250,2012-10-06 23:53:00
7:53 PM,78.1,66.9,68,29.96,10.0,West,5.8,-,N/A,,Clear,260,2012-10-07 00:53:00
8:53 PM,75.0,68.0,79,29.97,10.0,Calm,Calm,-,N/A,,Clear,0,2012-10-07 01:53:00
9:53 PM,75.9,64.9,69,29.99,10.0,North,5.8,-,N/A,,Clear,360,2012-10-07 02:53:00
10:53 PM,73.0,66.0,79,29.99,10.0,North,5.8,-,N/A,,Clear,360,2012-10-07 03:53:00
11:53 PM,72.0,66.0,81,29.99,10.0,North,6.9,-,N/A,,Clear,10,2012-10-07 04:53:00